createdAt,value
2022-11-20T00:01:21.369Z,29.42
2022-11-20T00:03:56.000Z,29.70
2022-11-20T00:06:30.681Z,25.83
2022-11-20T00:09:04.274Z,29.15
2022-11-20T00:11:38.188Z,30.02
2022-11-20T00:14:12.377Z,32.80
2022-11-20T00:16:47.478Z,29.80
2022-11-20T00:19:20.885Z,28.67
2022-11-20T00:21:56.364Z,29.80
2022-11-20T00:24:29.603Z,30.13
2022-11-20T00:27:03.222Z,28.40
2022-11-20T00:29:36.474Z,32.22
2022-11-20T00:32:11.270Z,34.78
2022-11-20T00:34:44.532Z,37.10
2022-11-20T00:37:17.848Z,35.53
2022-11-20T00:39:51.132Z,30.88
2022-11-20T00:42:24.359Z,35.40
2022-11-20T00:44:57.794Z,35.75
2022-11-20T00:47:32.441Z,32.08
2022-11-20T00:50:06.765Z,30.08
2022-11-20T00:52:40.182Z,32.72
2022-11-20T00:55:13.432Z,29.55
2022-11-20T00:57:47.138Z,30.70
2022-11-20T01:00:20.683Z,33.25
2022-11-20T01:02:57.706Z,28.95
2022-11-20T01:05:30.946Z,34.88
2022-11-20T01:08:04.549Z,35.15
2022-11-20T01:10:38.151Z,34.70
2022-11-20T01:13:29.065Z,45.60
2022-11-20T01:16:05.228Z,42.63
2022-11-20T01:18:42.344Z,48.00
2022-11-20T01:21:18.296Z,36.13
2022-11-20T01:23:52.545Z,54.65
2022-11-20T01:26:27.142Z,47.88
2022-11-20T01:29:01.001Z,43.85
2022-11-20T01:31:36.207Z,51.42
2022-11-20T01:34:14.186Z,40.55
2022-11-20T01:36:48.010Z,51.38
2022-11-20T01:39:24.088Z,42.10
2022-11-20T01:42:15.621Z,44.78
2022-11-20T01:44:55.325Z,36.03
2022-11-20T01:47:35.142Z,48.53
2022-11-20T01:50:19.048Z,60.53
2022-11-20T01:52:56.999Z,46.25
2022-11-20T01:55:35.102Z,43.17
2022-11-20T01:58:08.670Z,46.08
2022-11-20T02:00:42.987Z,46.50
2022-11-20T02:03:19.463Z,46.58
2022-11-20T02:06:00.091Z,46.80
2022-11-20T02:08:34.456Z,38.90
2022-11-20T02:11:07.830Z,45.67
2022-11-20T02:13:46.337Z,37.65
2022-11-20T02:16:25.929Z,44.80
2022-11-20T02:19:03.415Z,38.42
2022-11-20T02:21:44.860Z,39.75
2022-11-20T02:24:21.734Z,44.75
2022-11-20T02:26:57.935Z,45.75
2022-11-20T02:29:36.214Z,29.00
2022-11-20T02:32:20.653Z,32.25
2022-11-20T02:34:54.524Z,32.55
2022-11-20T02:37:34.615Z,34.80
2022-11-20T02:40:11.094Z,34.08
2022-11-20T02:42:44.358Z,33.90
2022-11-20T02:45:18.148Z,37.20
2022-11-20T02:47:51.590Z,30.98
2022-11-20T02:50:24.814Z,40.60
2022-11-20T02:52:58.432Z,36.25
2022-11-20T02:55:33.208Z,35.58
2022-11-20T02:58:06.895Z,52.17
2022-11-20T03:00:40.142Z,46.92
2022-11-20T03:03:13.897Z,47.50
2022-11-20T03:05:47.336Z,43.53
2022-11-20T03:08:20.630Z,45.35
2022-11-20T03:10:55.274Z,45.70
2022-11-20T03:13:28.515Z,57.35
2022-11-20T03:16:11.840Z,50.55
2022-11-20T03:18:45.565Z,51.65
2022-11-20T03:21:19.051Z,47.08
2022-11-20T03:23:52.285Z,48.40
2022-11-20T03:26:28.769Z,38.75
2022-11-20T03:29:04.200Z,48.58
2022-11-20T03:31:41.467Z,42.75
2022-11-20T03:34:14.765Z,49.08
2022-11-20T03:36:48.007Z,34.58
2022-11-20T03:39:21.940Z,32.70
2022-11-20T03:41:56.770Z,36.55
2022-11-20T03:44:30.214Z,37.40
2022-11-20T03:47:03.456Z,39.80
2022-11-20T03:49:36.786Z,36.75
2022-11-20T03:52:10.183Z,34.63
2022-11-20T03:54:43.926Z,32.47
2022-11-20T03:57:18.566Z,34.65
2022-11-20T03:59:51.829Z,47.15
2022-11-20T04:02:25.262Z,30.20
2022-11-20T04:04:58.525Z,31.63
2022-11-20T04:07:32.669Z,35.97
2022-11-20T04:10:06.912Z,31.50
2022-11-20T04:12:41.703Z,36.55
2022-11-20T04:15:14.987Z,39.55
2022-11-20T04:17:48.527Z,33.45
2022-11-20T04:20:21.982Z,34.22
2022-11-20T04:22:56.742Z,40.50
2022-11-20T04:25:30.142Z,32.90
2022-11-20T04:28:04.956Z,35.67
2022-11-20T04:30:38.721Z,30.48
2022-11-20T04:33:12.086Z,49.40
2022-11-20T04:35:48.452Z,33.30
2022-11-20T04:38:21.737Z,33.92
2022-11-20T04:40:59.119Z,34.60
2022-11-20T04:43:34.474Z,44.00
2022-11-20T04:46:08.063Z,40.13
2022-11-20T04:48:41.355Z,35.53
2022-11-20T04:51:15.275Z,38.58
2022-11-20T04:53:48.674Z,41.10
2022-11-20T04:56:22.228Z,44.20
2022-11-20T04:58:57.047Z,35.97
2022-11-20T05:01:30.674Z,43.50
2022-11-20T05:04:04.136Z,41.65
2022-11-20T05:06:37.410Z,39.88
2022-11-20T05:09:11.083Z,39.85
2022-11-20T05:11:47.046Z,35.17
2022-11-20T05:14:23.816Z,36.20
2022-11-20T05:16:57.148Z,41.47
2022-11-20T05:19:30.600Z,45.65
2022-11-20T05:22:03.888Z,46.70
2022-11-20T05:24:37.517Z,46.70
2022-11-20T05:27:10.771Z,36.15
2022-11-20T05:29:45.598Z,38.30
2022-11-20T05:32:18.852Z,41.83
2022-11-20T05:34:52.084Z,50.97
2022-11-20T05:37:25.333Z,48.30
2022-11-20T05:39:58.798Z,44.10
2022-11-20T05:42:32.821Z,40.75
2022-11-20T05:45:08.838Z,44.78
2022-11-20T05:47:42.082Z,46.05
2022-11-20T05:50:15.741Z,35.90
2022-11-20T05:52:49.331Z,43.67
2022-11-20T05:55:22.844Z,40.38
2022-11-20T05:57:56.312Z,41.03
2022-11-20T06:00:30.959Z,37.03
2022-11-20T06:03:04.443Z,33.35
2022-11-20T06:05:38.080Z,37.75
2022-11-20T06:08:11.369Z,31.58
2022-11-20T06:10:44.944Z,39.13
2022-11-20T06:13:18.190Z,30.55
2022-11-20T06:15:54.214Z,34.35
2022-11-20T06:18:29.595Z,30.67
2022-11-20T06:21:04.609Z,39.22
2022-11-20T06:23:38.472Z,39.22
2022-11-20T06:26:14.389Z,43.10
2022-11-20T06:28:48.176Z,31.33
2022-11-20T06:31:24.315Z,41.30
2022-11-20T06:33:57.810Z,48.45
2022-11-20T06:36:31.110Z,50.55
2022-11-20T06:39:05.127Z,49.50
2022-11-20T06:41:38.371Z,46.13
2022-11-20T06:44:11.734Z,49.08
2022-11-20T06:46:46.395Z,48.30
2022-11-20T06:49:20.596Z,36.25
2022-11-20T06:51:54.184Z,48.28
2022-11-20T06:54:27.474Z,46.03
2022-11-20T06:57:00.826Z,47.20
2022-11-20T06:59:34.381Z,51.63
2022-11-20T07:02:12.068Z,52.25
2022-11-20T07:04:45.384Z,52.08
2022-11-20T07:07:19.059Z,47.85
2022-11-20T07:09:52.384Z,41.65
2022-11-20T07:12:25.657Z,44.95
2022-11-20T07:14:58.907Z,46.17
2022-11-20T07:17:33.552Z,58.70
2022-11-20T07:20:07.669Z,41.55
2022-11-20T07:22:41.282Z,41.85
2022-11-20T07:25:14.564Z,43.28
2022-11-20T07:27:47.828Z,49.67
2022-11-20T07:30:21.799Z,53.22
2022-11-20T07:32:57.968Z,56.47
2022-11-20T07:35:31.250Z,50.53
2022-11-20T07:38:04.530Z,44.53
2022-11-20T07:40:37.974Z,50.30
2022-11-20T07:43:11.239Z,50.38
2022-11-20T07:45:44.807Z,55.63
2022-11-20T07:48:19.428Z,42.95
2022-11-20T07:50:56.123Z,57.33
2022-11-20T07:53:29.388Z,57.20
2022-11-20T07:56:03.822Z,46.58
2022-11-20T07:58:37.672Z,42.83
2022-11-20T08:01:11.033Z,39.47
2022-11-20T08:03:46.054Z,36.63
2022-11-20T08:06:20.563Z,41.60
2022-11-20T08:08:54.107Z,38.53
2022-11-20T08:11:44.466Z,35.58
2022-11-20T08:14:18.206Z,41.17
2022-11-20T08:16:51.780Z,32.78
2022-11-20T08:19:26.584Z,47.97
2022-11-20T08:22:00.030Z,31.20
2022-11-20T08:24:33.269Z,32.90
2022-11-20T08:27:07.026Z,31.17
2022-11-20T08:29:40.458Z,38.72
2022-11-20T08:32:13.801Z,44.45
2022-11-20T08:34:48.792Z,49.58
2022-11-20T08:37:22.045Z,42.90
2022-11-20T08:39:58.246Z,51.45
2022-11-20T08:42:31.496Z,34.65
2022-11-20T08:45:05.745Z,26.17
2022-11-20T08:47:39.259Z,24.95
2022-11-20T08:50:14.954Z,31.08
2022-11-20T08:52:48.693Z,25.48
2022-11-20T08:55:21.953Z,32.90
2022-11-20T08:57:55.379Z,27.52
2022-11-20T09:00:28.661Z,35.75
2022-11-20T09:03:02.813Z,38.88
2022-11-20T09:05:37.660Z,35.63
2022-11-20T09:08:11.041Z,29.63
2022-11-20T09:10:44.446Z,31.52
2022-11-20T09:13:17.700Z,34.65
2022-11-20T09:15:55.422Z,30.98
2022-11-20T09:18:32.584Z,38.25
2022-11-20T09:21:08.909Z,37.40
2022-11-20T09:23:42.504Z,39.47
2022-11-20T09:26:16.412Z,24.90
2022-11-20T09:28:52.836Z,31.58
2022-11-20T09:31:28.612Z,23.83
2022-11-20T09:34:01.925Z,24.55
2022-11-20T09:36:36.588Z,22.65
2022-11-20T09:39:09.929Z,30.80
2022-11-20T09:42:12.001Z,21.83
2022-11-20T09:45:00.129Z,18.10
2022-11-20T09:47:44.588Z,22.67
2022-11-20T09:50:28.822Z,26.23
2022-11-20T09:53:17.276Z,24.85
2022-11-20T09:55:51.585Z,18.98
2022-11-20T09:58:33.160Z,18.77
2022-11-20T10:01:13.519Z,19.33
2022-11-20T10:03:56.482Z,22.50
2022-11-20T10:06:33.372Z,17.88
2022-11-20T10:09:21.196Z,26.75
2022-11-20T10:12:01.057Z,25.67
2022-11-20T10:14:44.026Z,21.35
2022-11-20T10:17:27.439Z,23.35
2022-11-20T10:20:21.520Z,21.70
2022-11-20T10:23:15.026Z,18.23
2022-11-20T10:25:56.844Z,16.98
2022-11-20T10:28:55.438Z,16.70
2022-11-20T10:31:35.033Z,21.38
2022-11-20T10:34:22.658Z,19.73
2022-11-20T10:37:00.511Z,20.05
2022-11-20T10:39:37.635Z,19.63
2022-11-20T10:42:18.134Z,20.63
2022-11-20T10:45:05.998Z,15.35
2022-11-20T10:47:42.152Z,16.80
2022-11-20T10:50:22.490Z,21.65
2022-11-20T10:53:06.603Z,19.42
2022-11-20T10:55:47.067Z,19.08
2022-11-20T10:58:32.684Z,17.45
2022-11-20T11:01:06.974Z,20.55
2022-11-20T11:03:40.433Z,23.80
2022-11-20T11:06:20.562Z,22.65
2022-11-20T11:08:57.398Z,18.83
2022-11-20T11:11:33.001Z,22.25
2022-11-20T11:14:13.215Z,22.08
2022-11-20T11:16:52.919Z,19.75
2022-11-20T11:19:26.440Z,20.55
2022-11-20T11:22:00.035Z,17.73
2022-11-20T11:24:42.817Z,21.85
2022-11-20T11:27:19.007Z,24.00
2022-11-20T11:30:06.059Z,22.75
2022-11-20T11:32:39.366Z,18.67
2022-11-20T11:35:24.839Z,22.98
2022-11-20T11:38:06.478Z,20.38
2022-11-20T11:40:41.825Z,15.63
2022-11-20T11:43:39.789Z,15.43
2022-11-20T11:46:29.355Z,16.88
2022-11-20T11:49:12.442Z,16.65
2022-11-20T11:51:58.803Z,17.67
2022-11-20T11:54:37.017Z,12.85
2022-11-20T11:57:25.536Z,16.75
2022-11-20T12:00:05.532Z,16.13
2022-11-20T12:02:51.063Z,15.15
2022-11-20T12:05:27.688Z,14.95
2022-11-20T12:08:12.203Z,15.50
2022-11-20T12:10:50.709Z,17.00
2022-11-20T12:13:36.496Z,18.00
2022-11-20T12:16:14.704Z,20.35
2022-11-20T12:18:51.547Z,15.27
2022-11-20T12:21:33.551Z,18.23
2022-11-20T12:24:21.945Z,16.38
2022-11-20T12:27:06.288Z,17.45
2022-11-20T12:29:52.390Z,16.83
2022-11-20T12:32:55.431Z,18.77
2022-11-20T12:35:46.896Z,17.23
2022-11-20T12:38:55.891Z,14.18
2022-11-20T12:42:02.943Z,15.68
2022-11-20T12:45:11.303Z,15.02
2022-11-20T12:47:58.221Z,16.13
2022-11-20T12:51:08.210Z,15.32
2022-11-20T12:53:46.677Z,15.30
2022-11-20T12:56:32.204Z,17.70
2022-11-20T12:59:18.719Z,14.68
2022-11-20T13:01:55.314Z,14.95
2022-11-20T13:05:01.680Z,15.57
2022-11-20T13:07:38.334Z,15.02
2022-11-20T13:10:20.286Z,14.63
2022-11-20T13:12:59.714Z,12.30
2022-11-20T13:15:44.359Z,12.63
2022-11-20T13:18:18.435Z,22.48
2022-11-20T13:20:52.781Z,19.15
2022-11-20T13:23:29.156Z,20.85
2022-11-20T13:26:08.250Z,14.63
2022-11-20T13:28:42.511Z,13.05
2022-11-20T13:31:31.841Z,18.50
2022-11-20T13:34:08.117Z,22.73
2022-11-20T13:36:52.699Z,18.70
2022-11-20T13:39:32.798Z,21.52
2022-11-20T13:42:27.077Z,19.30
2022-11-20T13:45:10.356Z,21.92
2022-11-20T13:47:50.572Z,21.48
2022-11-20T13:50:41.528Z,22.30
2022-11-20T13:53:38.650Z,22.13
2022-11-20T13:56:25.566Z,25.27
2022-11-20T13:59:10.814Z,27.48
2022-11-20T14:01:48.608Z,27.20
2022-11-20T14:04:28.725Z,30.63
2022-11-20T14:07:02.695Z,22.63
2022-11-20T14:09:36.465Z,21.35
2022-11-20T14:12:19.733Z,17.60
2022-11-20T14:14:54.575Z,19.55
2022-11-20T14:17:33.913Z,19.70
2022-11-20T14:20:14.525Z,24.15
2022-11-20T14:22:51.744Z,23.60
2022-11-20T14:25:28.200Z,18.30
2022-11-20T14:28:04.717Z,27.92
2022-11-20T14:30:44.887Z,25.83
2022-11-20T14:33:18.769Z,28.30
2022-11-20T14:35:53.863Z,28.90
2022-11-20T14:38:29.872Z,31.33
2022-11-20T14:41:09.777Z,36.65
2022-11-20T14:43:48.793Z,37.45
2022-11-20T14:46:22.885Z,32.72
2022-11-20T14:48:58.282Z,29.48
2022-11-20T14:51:35.964Z,24.98
2022-11-20T14:54:14.042Z,33.05
2022-11-20T14:56:58.462Z,25.90
2022-11-20T14:59:34.678Z,34.92
2022-11-20T15:02:11.786Z,44.72
2022-11-20T15:04:50.511Z,45.05
2022-11-20T15:07:28.160Z,44.83
2022-11-20T15:10:02.956Z,48.08
2022-11-20T15:12:39.600Z,50.75
2022-11-20T15:15:17.218Z,98.90
2022-11-20T15:17:50.724Z,98.25
2022-11-20T15:20:28.746Z,74.53
2022-11-20T15:23:02.042Z,62.58
2022-11-20T15:25:35.614Z,48.70
2022-11-20T15:28:17.371Z,60.15
2022-11-20T15:30:52.462Z,59.37
2022-11-20T15:33:25.762Z,65.85
2022-11-20T15:35:59.244Z,50.97
2022-11-20T15:38:32.538Z,52.40
2022-11-20T15:41:06.314Z,62.45
2022-11-20T15:43:39.863Z,60.03
2022-11-20T15:46:17.636Z,54.90
2022-11-20T15:48:54.205Z,54.92
2022-11-20T15:51:29.478Z,47.55
2022-11-20T15:54:03.321Z,48.40
2022-11-20T15:56:36.561Z,47.63
2022-11-20T15:59:09.865Z,44.45
2022-11-20T16:01:44.902Z,37.70
2022-11-20T16:04:19.378Z,45.85
2022-11-20T16:06:52.679Z,36.75
2022-11-20T16:09:25.922Z,39.63
2022-11-20T16:12:00.411Z,26.83
2022-11-20T16:15:08.223Z,39.15
2022-11-20T16:17:47.076Z,43.05
2022-11-20T16:20:20.689Z,58.13
2022-11-20T16:22:55.037Z,63.45
2022-11-20T16:25:29.510Z,59.22
2022-11-20T16:28:02.996Z,64.13
2022-11-20T16:30:36.393Z,60.70
2022-11-20T16:33:14.086Z,66.78
2022-11-20T16:35:47.504Z,63.28
2022-11-20T16:38:20.742Z,70.88
2022-11-20T16:40:54.023Z,75.65
2022-11-20T16:43:27.269Z,80.20
2022-11-20T16:46:00.521Z,68.97
2022-11-20T16:48:35.182Z,64.45
2022-11-20T16:51:11.121Z,65.18
2022-11-20T16:53:44.515Z,92.45
2022-11-20T16:56:18.905Z,127.00
2022-11-20T16:58:53.056Z,133.90
2022-11-20T17:01:28.734Z,105.00
2022-11-20T17:04:05.502Z,106.03
2022-11-20T17:06:41.399Z,92.03
2022-11-20T17:09:15.395Z,127.85
2022-11-20T17:11:50.268Z,209.60
2022-11-20T17:14:23.721Z,163.90
2022-11-20T17:16:57.203Z,289.08
2022-11-20T17:19:31.913Z,247.57
2022-11-20T17:22:05.279Z,171.32
2022-11-20T17:24:38.665Z,170.57
2022-11-20T17:27:12.630Z,184.77
2022-11-20T17:29:46.738Z,164.63
2022-11-20T17:32:20.099Z,164.63
2022-11-20T17:34:54.787Z,158.60
2022-11-20T17:37:28.036Z,156.10
2022-11-20T17:40:01.297Z,156.60
2022-11-20T17:42:36.945Z,148.85
2022-11-20T17:45:10.491Z,134.90
2022-11-20T17:47:46.503Z,124.47
2022-11-20T17:50:21.200Z,127.03
2022-11-20T17:52:54.772Z,114.75
2022-11-20T17:55:51.475Z,79.68
2022-11-20T17:58:28.280Z,96.85
2022-11-20T18:01:06.882Z,89.13
2022-11-20T18:03:40.813Z,81.35
2022-11-20T18:06:18.132Z,104.97
2022-11-20T18:08:52.308Z,105.28
2022-11-20T18:11:27.253Z,173.30
2022-11-20T18:14:18.986Z,145.98
2022-11-20T18:16:55.682Z,112.80
2022-11-20T18:19:32.803Z,123.03
2022-11-20T18:22:07.978Z,145.10
2022-11-20T18:24:42.143Z,175.32
2022-11-20T18:27:18.387Z,250.73
2022-11-20T18:29:52.402Z,183.00
2022-11-20T18:32:25.871Z,199.43
2022-11-20T18:34:59.174Z,163.52
2022-11-20T18:37:34.278Z,146.23
2022-11-20T18:40:09.185Z,135.38
2022-11-20T18:43:00.043Z,124.82
2022-11-20T18:45:33.420Z,129.45
2022-11-20T18:48:06.908Z,142.23
2022-11-20T18:50:40.199Z,168.38
2022-11-20T18:53:14.903Z,172.20
2022-11-20T18:55:48.205Z,151.60
2022-11-20T18:58:21.512Z,161.27
2022-11-20T19:00:54.781Z,155.75
2022-11-20T19:03:28.752Z,143.90
2022-11-20T19:06:02.123Z,128.02
2022-11-20T19:08:36.913Z,123.63
2022-11-20T19:11:11.482Z,142.23
2022-11-20T19:13:44.778Z,151.35
2022-11-20T19:16:20.367Z,148.00
2022-11-20T19:18:56.414Z,184.65
2022-11-20T19:21:30.477Z,195.02
2022-11-20T19:24:06.090Z,168.73
2022-11-20T19:26:39.739Z,176.35
2022-11-20T19:29:15.508Z,149.38
2022-11-20T19:31:48.912Z,164.95
2022-11-20T19:34:22.355Z,143.93
2022-11-20T19:36:55.615Z,147.02
2022-11-20T19:39:30.460Z,146.55
2022-11-20T19:42:03.745Z,143.75
2022-11-20T19:44:37.059Z,171.43
2022-11-20T19:47:14.288Z,161.38
2022-11-20T19:49:48.049Z,143.13
2022-11-20T19:52:21.296Z,127.53
2022-11-20T19:54:56.273Z,150.63
2022-11-20T19:57:29.546Z,137.57
2022-11-20T20:00:02.786Z,137.73
2022-11-20T20:02:38.328Z,145.70
2022-11-20T20:05:11.628Z,148.98
2022-11-20T20:07:44.942Z,138.90
2022-11-20T20:10:20.412Z,131.93
2022-11-20T20:12:54.230Z,135.57
2022-11-20T20:15:27.660Z,133.35
2022-11-20T20:18:00.965Z,118.68
2022-11-20T20:20:34.246Z,107.90
2022-11-20T20:23:08.107Z,99.90
2022-11-20T20:25:42.744Z,97.63
2022-11-20T20:28:16.547Z,92.97
2022-11-20T20:30:49.985Z,125.95
2022-11-20T20:33:24.469Z,116.38
2022-11-20T20:36:00.599Z,88.97
2022-11-20T20:38:34.216Z,109.47
2022-11-20T20:41:09.081Z,129.18
2022-11-20T20:43:59.970Z,124.35
2022-11-20T20:46:33.475Z,129.65
2022-11-20T20:49:07.405Z,125.43
2022-11-20T20:51:40.665Z,106.63
2022-11-20T20:54:13.921Z,113.95
2022-11-20T20:56:48.539Z,113.22
2022-11-20T20:59:22.156Z,117.03
2022-11-20T21:01:55.616Z,121.68
2022-11-20T21:04:28.961Z,118.00
2022-11-20T21:07:02.262Z,126.50
2022-11-20T21:09:35.624Z,101.32
2022-11-20T21:12:10.294Z,84.00
2022-11-20T21:14:44.096Z,113.28
2022-11-20T21:17:17.370Z,114.28
2022-11-20T21:19:50.591Z,143.00
2022-11-20T21:22:22.879Z,109.90
2022-11-20T21:24:56.154Z,132.88
2022-11-20T21:27:30.877Z,175.27
2022-11-20T21:30:04.676Z,200.00
2022-11-20T21:32:38.036Z,181.20
2022-11-20T21:35:11.477Z,185.20
2022-11-20T21:37:44.795Z,160.18
2022-11-20T21:40:18.330Z,144.65
2022-11-20T21:42:54.630Z,166.20
2022-11-20T21:45:28.457Z,178.40
2022-11-20T21:48:01.760Z,152.57
2022-11-20T21:50:36.109Z,189.60
2022-11-20T21:53:09.383Z,180.38
2022-11-20T21:55:42.638Z,165.15
2022-11-20T21:58:17.349Z,178.20
2022-11-20T22:00:50.878Z,184.90
2022-11-20T22:03:24.579Z,167.10
2022-11-20T22:05:58.642Z,185.82
2022-11-20T22:08:32.106Z,173.48
2022-11-20T22:11:07.621Z,183.50
2022-11-20T22:14:00.222Z,164.82
2022-11-20T22:19:08.542Z,140.82
2022-11-20T22:21:41.942Z,144.57
2022-11-20T22:24:18.153Z,134.95
2022-11-20T22:26:51.727Z,136.55
2022-11-20T22:29:26.386Z,130.60
2022-11-20T22:31:59.641Z,128.80
2022-11-20T22:34:33.143Z,134.73
2022-11-20T22:37:06.461Z,151.35
2022-11-20T22:39:39.700Z,156.18
2022-11-20T22:42:12.940Z,152.35
2022-11-20T22:44:47.524Z,164.40
2022-11-20T22:47:20.952Z,157.25
2022-11-20T22:49:54.228Z,152.40
2022-11-20T22:52:27.609Z,153.45
2022-11-20T22:55:00.858Z,148.70
2022-11-20T22:57:34.143Z,129.35
2022-11-20T23:00:10.570Z,117.38
2022-11-20T23:02:45.247Z,111.45
2022-11-20T23:05:18.484Z,107.47
2022-11-20T23:07:51.757Z,114.15
2022-11-20T23:10:25.054Z,105.70
2022-11-20T23:12:58.355Z,111.38
2022-11-20T23:15:34.575Z,116.15
2022-11-20T23:18:07.895Z,112.40
2022-11-20T23:20:41.208Z,107.93
2022-11-20T23:23:14.487Z,100.53
2022-11-20T23:25:47.762Z,93.80
2022-11-20T23:28:21.024Z,100.72
2022-11-20T23:31:14.147Z,94.60
2022-11-20T23:33:48.041Z,95.32
2022-11-20T23:36:21.382Z,99.05
2022-11-20T23:38:54.643Z,93.95
2022-11-20T23:41:28.273Z,85.03
2022-11-20T23:44:01.508Z,82.45
2022-11-20T23:46:36.579Z,84.40
2022-11-20T23:49:10.088Z,94.03
2022-11-20T23:51:43.558Z,98.88
2022-11-20T23:54:16.973Z,99.72
2022-11-20T23:56:50.558Z,105.78
2022-11-20T23:59:23.816Z,107.90
